Time;durP1;ratioP1;P1;durP2;ratioP2;P2;SDS_P1;SDS_P2;PMS_P1;PMS_P2;Temp;Humidity;BMP_temperature;BMP_pressure;BME280_temperature;BME280_humidity;BME280_pressure;Samples;Min_cycle;Max_cycle;Signal;HPM_P1;HPM_P2
2024/04/12 00:00:48;;;;;;;;;28.00;26.40;;;;;14.40;100.00;100264.69;6270022;27;96661;-57
2024/04/12 00:03:54;;;;;;;;;26.50;24.50;;;;;14.30;100.00;100254.22;6289764;27;94543;-57
2024/04/12 00:07:00;;;;;;;;;26.60;24.00;;;;;14.31;100.00;100259.47;6290064;27;94761;-59
2024/04/12 00:10:06;;;;;;;;;27.20;24.80;;;;;14.29;100.00;100252.56;6271742;27;95630;-57
2024/04/12 00:13:08;;;;;;;;;30.00;26.40;;;;;14.28;100.00;100254.44;6298671;27;94411;-58
2024/04/12 00:16:17;;;;;;;;;26.75;24.25;;;;;14.24;100.00;100245.06;6302722;27;94456;-57
2024/04/12 00:19:23;;;;;;;;;24.20;23.60;;;;;14.25;100.00;100249.44;6308340;27;94421;-57
2024/04/12 00:22:29;;;;;;;;;26.80;23.00;;;;;14.20;100.00;100245.69;6307231;27;94395;-57
2024/04/12 00:25:35;;;;;;;;;25.00;21.40;;;;;14.26;100.00;100239.44;6306478;27;94829;-57
2024/04/12 00:28:38;;;;;;;;;25.75;24.75;;;;;14.25;100.00;100237.75;6307712;27;94372;-57
2024/04/12 00:31:46;;;;;;;;;24.60;23.60;;;;;14.07;100.00;100200.47;6274214;27;94348;-58
2024/04/12 00:34:51;;;;;;;;;27.50;24.00;;;;;14.25;100.00;100229.63;6323446;27;94460;-57
2024/04/12 00:38:03;;;;;;;;;24.60;22.40;;;;;14.31;100.00;100228.78;6285331;27;94648;-58
2024/04/12 00:41:18;;;;;;;;;25.00;24.20;;;;;14.29;100.00;100228.97;6292738;27;94466;-56
2024/04/12 00:44:29;;;;;;;;;25.20;23.60;;;;;14.31;100.00;100226.91;6293968;27;94382;-56
2024/04/12 00:47:37;;;;;;;;;25.60;22.20;;;;;14.28;100.00;100224.59;6298875;27;94395;-56
2024/04/12 00:50:40;;;;;;;;;26.25;24.25;;;;;14.27;100.00;100216.66;6306231;27;94713;-56
2024/04/12 00:53:48;;;;;;;;;28.60;26.00;;;;;14.27;100.00;100220.22;6275962;27;94276;-57
2024/04/12 00:56:51;;;;;;;;;24.40;23.40;;;;;14.27;100.00;100227.50;6296853;27;96711;-57
2024/04/12 00:59:56;;;;;;;;;25.60;24.60;;;;;14.23;100.00;100224.41;6272200;27;94618;-56
2024/04/12 01:03:05;;;;;;;;;26.00;24.00;;;;;14.22;100.00;100221.91;6295488;22;94349;-59
2024/04/12 01:06:10;;;;;;;;;28.25;25.25;;;;;14.09;100.00;100200.22;6329432;27;96511;-58
2024/04/12 01:09:21;;;;;;;;;25.00;24.00;;;;;14.15;100.00;100231.94;6322755;27;94433;-57
2024/04/12 01:12:26;;;;;;;;;26.75;24.75;;;;;14.07;100.00;100235.72;6325418;27;96547;-57
2024/04/12 01:15:32;;;;;;;;;27.75;24.25;;;;;13.96;100.00;100220.09;6319785;27;94361;-57
2024/04/12 01:18:42;;;;;;;;;26.00;24.25;;;;;13.94;100.00;100224.03;6327188;27;94996;-57
2024/04/12 01:21:47;;;;;;;;;26.00;24.00;;;;;13.88;100.00;100234.69;6320949;27;96627;-58
2024/04/12 01:24:52;;;;;;;;;26.00;24.20;;;;;13.78;100.00;100223.44;6319164;27;97467;-59
2024/04/12 01:27:58;;;;;;;;;26.75;24.00;;;;;13.76;100.00;100238.25;6343636;27;96510;-62
2024/04/12 01:31:03;;;;;;;;;30.00;27.00;;;;;13.71;100.00;100238.88;6305042;27;94633;-59
2024/04/12 01:34:13;;;;;;;;;23.40;23.40;;;;;13.62;100.00;100232.00;6277254;27;97613;-58
2024/04/12 01:37:20;;;;;;;;;29.75;27.25;;;;;13.62;100.00;100237.44;6322780;27;96908;-58
2024/04/12 01:40:25;;;;;;;;;28.00;25.00;;;;;13.54;100.00;100228.66;6354330;27;95028;-59
2024/04/12 01:43:35;;;;;;;;;28.50;25.50;;;;;13.57;100.00;100239.09;6283410;27;94748;-59
2024/04/12 01:46:41;;;;;;;;;26.75;25.00;;;;;13.53;100.00;100238.69;6304443;27;97415;-57
2024/04/12 01:49:46;;;;;;;;;26.00;25.00;;;;;13.51;100.00;100248.88;6300476;27;97143;-56
2024/04/12 01:52:53;;;;;;;;;29.00;26.25;;;;;13.49;100.00;100240.13;6327931;27;94633;-57
2024/04/12 01:56:02;;;;;;;;;26.25;25.25;;;;;13.43;100.00;100239.09;6271497;27;94735;-57
2024/04/12 01:59:04;;;;;;;;;28.50;28.00;;;;;13.45;100.00;100236.16;6296261;27;94632;-57
2024/04/12 02:02:10;;;;;;;;;30.00;26.00;;;;;13.46;100.00;100245.97;6320652;27;96651;-60
2024/04/12 02:05:13;;;;;;;;;24.80;23.20;;;;;13.47;100.00;100247.63;6327212;27;94354;-57
2024/04/12 02:08:19;;;;;;;;;27.80;26.00;;;;;13.44;100.00;100239.91;6324728;27;94390;-58
2024/04/12 02:11:27;;;;;;;;;30.60;26.00;;;;;13.45;100.00;100244.28;6297126;27;96601;-57
2024/04/12 02:14:30;;;;;;;;;26.40;25.00;;;;;13.47;100.00;100250.34;6300389;27;94457;-56
2024/04/12 02:17:36;;;;;;;;;27.75;25.50;;;;;13.45;100.00;100244.28;6303622;27;94461;-57
2024/04/12 02:20:38;;;;;;;;;27.00;25.60;;;;;13.45;100.00;100241.56;6296468;27;94404;-57
2024/04/12 02:23:44;;;;;;;;;27.40;26.00;;;;;13.44;100.00;100248.03;6301705;27;96748;-57
2024/04/12 02:26:49;;;;;;;;;28.40;27.40;;;;;13.29;100.00;100242.81;6296476;27;94668;-57
2024/04/12 02:29:55;;;;;;;;;25.00;23.75;;;;;13.22;100.00;100244.69;6325066;27;95331;-59
2024/04/12 02:33:00;;;;;;;;;25.80;23.80;;;;;13.20;100.00;100249.47;6304719;27;94420;-57
2024/04/12 02:36:11;;;;;;;;;24.80;23.00;;;;;13.18;100.00;100246.13;6354904;27;94336;-57
2024/04/12 02:39:22;;;;;;;;;24.80;24.00;;;;;13.07;100.00;100244.00;6314941;27;97496;-57
2024/04/12 02:42:28;;;;;;;;;26.60;25.00;;;;;13.01;100.00;100242.94;6305142;27;95003;-57
2024/04/12 02:45:34;;;;;;;;;24.40;23.00;;;;;12.89;100.00;100232.91;6307135;27;95026;-57
2024/04/12 02:48:40;;;;;;;;;24.60;24.00;;;;;12.83;100.00;100218.31;6301053;27;97419;-57
2024/04/12 02:51:47;;;;;;;;;29.00;26.00;;;;;12.82;100.00;100224.78;6323960;27;94406;-57
2024/04/12 02:54:52;;;;;;;;;26.50;25.00;;;;;12.94;100.00;100235.84;6303472;27;97570;-58
2024/04/12 02:58:00;;;;;;;;;25.80;24.40;;;;;12.99;100.00;100236.91;6310000;27;96624;-57
2024/04/12 03:01:03;;;;;;;;;26.00;23.80;;;;;13.03;100.00;100234.63;6319230;27;96581;-57
2024/04/12 03:04:10;;;;;;;;;24.33;23.00;;;;;13.10;100.00;100245.44;6322360;27;95593;-57
2024/04/12 03:07:12;;;;;;;;;23.75;22.75;;;;;13.13;100.00;100239.66;6350351;27;94353;-57
2024/04/12 03:10:18;;;;;;;;;25.60;23.00;;;;;13.03;100.00;100240.88;6313531;27;95052;-57
2024/04/12 03:13:23;;;;;;;;;27.50;24.00;;;;;13.06;100.00;100241.47;6262092;27;94434;-58
2024/04/12 03:16:29;;;;;;;;;26.00;23.00;;;;;13.09;100.00;100238.38;6338398;27;94476;-58
2024/04/12 03:19:31;;;;;;;;;25.20;24.80;;;;;13.16;100.00;100248.22;6302584;27;94685;-57
2024/04/12 03:22:37;;;;;;;;;25.60;24.00;;;;;13.10;100.00;100230.03;6312032;27;94437;-57
2024/04/12 03:25:42;;;;;;;;;25.80;23.00;;;;;13.26;100.00;100256.78;6331377;27;95448;-61
2024/04/12 03:32:32;;;;;;;;;25.60;24.00;;;;;13.09;100.00;100241.94;6288046;27;94788;-88
2024/04/12 03:35:36;;;;;;;;;26.25;25.25;;;;;13.10;100.00;100257.13;6236514;28;94422;-86
2024/04/12 03:38:45;;;;;;;;;27.00;26.00;;;;;13.01;100.00;100236.69;6240577;28;94336;-85
2024/04/12 03:41:50;;;;;;;;;28.00;25.20;;;;;13.18;100.00;100267.81;6264984;28;94629;-86
2024/04/12 03:44:57;;;;;;;;;27.60;26.20;;;;;12.93;100.00;100226.06;6235839;27;94561;-88
2024/04/12 03:48:13;;;;;;;;;34.25;30.00;;;;;12.93;100.00;100236.88;6236140;28;95126;-87
2024/04/12 03:51:16;;;;;;;;;26.50;25.00;;;;;12.05;100.00;100114.22;6237903;27;94996;-87
2024/04/12 03:54:22;;;;;;;;;31.40;26.20;;;;;12.75;100.00;100253.69;6262746;27;95180;-87
2024/04/12 03:57:27;;;;;;;;;30.60;27.80;;;;;12.63;100.00;100230.94;6223827;28;94591;-85
2024/04/12 04:00:38;;;;;;;;;27.80;26.00;;;;;12.91;100.00;100266.00;6288555;27;94633;-87
2024/04/12 04:03:49;;;;;;;;;27.40;25.00;;;;;12.72;100.00;100234.31;6228873;27;94728;-86
2024/04/12 04:06:57;;;;;;;;;31.50;29.50;;;;;12.70;100.00;100239.94;6252660;27;95096;-85
2024/04/12 04:10:01;;;;;;;;;27.00;25.75;;;;;12.87;100.00;100245.81;6244036;27;94469;-85
2024/04/12 04:13:07;;;;;;;;;29.00;27.20;;;;;12.83;100.00;100234.56;6230174;27;94429;-85
2024/04/12 04:16:10;;;;;;;;;30.00;28.00;;;;;12.97;100.00;100257.94;6413939;22;96391;-86
2024/04/12 04:23:05;;;;;;;;;25.00;24.00;;;;;12.77;100.00;100215.59;6241838;27;95706;-84
2024/04/12 04:29:56;;;;;;;;;26.80;25.00;;;;;13.22;100.00;100271.78;6670005;22;95975;-62
2024/04/12 04:33:01;;;;;;;;;25.60;24.00;;;;;13.27;100.00;100279.28;6283721;27;97327;-61
2024/04/12 04:36:09;;;;;;;;;27.40;24.40;;;;;13.01;100.00;100251.06;6295624;22;95891;-84
2024/04/12 04:39:17;;;;;;;;;25.00;24.00;;;;;13.11;100.00;100247.13;6264361;27;94550;-88
2024/04/12 04:42:23;;;;;;;;;26.00;25.50;;;;;13.31;100.00;100289.50;6274530;27;96830;-88
2024/04/12 04:45:31;;;;;;;;;25.60;22.60;;;;;12.63;100.00;100178.69;6260425;27;97512;-88
2024/04/12 04:48:36;;;;;;;;;25.00;23.75;;;;;12.92;100.00;100217.09;6212193;28;96837;-89
2024/04/12 04:51:40;;;;;;;;;25.00;24.00;;;;;12.99;100.00;100226.09;6240419;27;95739;-88
2024/04/12 04:54:48;;;;;;;;;22.80;21.20;;;;;12.69;100.00;100183.31;6257632;27;95560;-88
2024/04/12 04:57:54;;;;;;;;;27.80;24.00;;;;;13.52;100.00;100263.25;6239586;28;94928;-88
2024/04/12 05:00:58;;;;;;;;;25.60;24.00;;;;;13.58;100.00;100278.72;6293101;27;94649;-89
2024/04/12 05:04:04;;;;;;;;;27.80;25.40;;;;;13.84;100.00;100298.50;6262752;27;94409;-88
2024/04/12 05:07:15;;;;;;;;;23.60;21.60;;;;;13.63;100.00;100285.19;6261949;27;96021;-88
2024/04/12 05:10:21;;;;;;;;;29.00;28.00;;;;;13.83;100.00;100277.03;6255280;27;95107;-89
2024/04/12 05:13:30;;;;;;;;;25.00;23.00;;;;;13.93;100.00;100306.44;6247763;28;94942;-88
2024/04/12 05:16:32;;;;;;;;;24.40;23.40;;;;;13.79;100.00;100281.19;6212332;27;96412;-89
2024/04/12 05:19:40;;;;;;;;;26.00;24.25;;;;;14.08;100.00;100307.03;6233559;28;95741;-88
2024/04/12 05:22:43;;;;;;;;;27.40;24.40;;;;;14.16;100.00;100296.84;6229904;28;96281;-88
2024/04/12 05:25:51;;;;;;;;;25.50;24.00;;;;;14.03;100.00;100285.13;6242621;28;96051;-88
2024/04/12 05:28:56;;;;;;;;;25.50;24.00;;;;;14.18;100.00;100272.19;6254317;27;96383;-88
2024/04/12 05:32:02;;;;;;;;;27.50;25.00;;;;;14.39;100.00;100287.41;6285046;27;96092;-88
2024/04/12 05:35:06;;;;;;;;;23.50;22.00;;;;;14.35;100.00;100264.44;6285053;27;94382;-88
2024/04/12 05:38:12;;;;;;;;;26.80;25.60;;;;;14.44;100.00;100274.88;6243090;28;95691;-88
2024/04/12 05:41:17;;;;;;;;;30.00;28.00;;;;;14.58;100.00;100262.94;6237953;28;95064;-89
2024/04/12 05:44:23;;;;;;;;;31.40;29.00;;;;;14.59;100.00;100250.22;6225080;28;96105;-88
2024/04/12 05:47:26;;;;;;;;;30.40;27.00;;;;;14.73;100.00;100268.09;6226760;28;95864;-89
2024/04/12 05:50:31;;;;;;;;;27.00;24.00;;;;;15.00;100.00;100293.28;6258911;22;95288;-63
2024/04/12 05:53:33;;;;;;;;;25.00;21.40;;;;;14.95;100.00;100293.94;6241603;27;95361;-62
2024/04/12 05:56:42;;;;;;;;;26.40;24.00;;;;;15.10;100.00;100304.50;6243723;27;94798;-62
2024/04/12 05:59:45;;;;;;;;;23.00;22.00;;;;;15.21;100.00;100306.53;6242963;27;94455;-61
2024/04/12 06:02:51;;;;;;;;;24.20;23.20;;;;;15.37;100.00;100308.75;6243186;27;94747;-62
2024/04/12 06:05:55;;;;;;;;;24.00;22.40;;;;;15.50;100.00;100302.38;6241724;28;96547;-62
2024/04/12 06:09:05;;;;;;;;;22.00;21.00;;;;;15.68;100.00;100304.38;6243656;28;94704;-62
2024/04/12 06:12:17;;;;;;;;;25.80;24.00;;;;;15.88;100.00;100296.91;6268532;27;95597;-62
2024/04/12 06:15:22;;;;;;;;;24.60;23.40;;;;;16.08;100.00;100289.38;6241113;28;96662;-62
2024/04/12 06:18:25;;;;;;;;;24.00;23.00;;;;;16.29;100.00;100286.25;6242409;27;94690;-62
2024/04/12 06:21:31;;;;;;;;;25.00;22.00;;;;;16.50;100.00;100289.59;6243604;27;94992;-62
2024/04/12 06:24:37;;;;;;;;;23.60;20.40;;;;;16.65;100.00;100287.38;6268782;27;94774;-62
2024/04/12 06:27:44;;;;;;;;;23.00;21.25;;;;;16.82;100.00;100286.53;6243186;27;95290;-62
2024/04/12 06:30:49;;;;;;;;;22.60;21.60;;;;;17.00;100.00;100280.25;6227809;28;96601;-62
2024/04/12 06:33:54;;;;;;;;;24.60;21.00;;;;;17.24;100.00;100289.34;6223902;28;94465;-62
2024/04/12 06:37:05;;;;;;;;;23.50;21.00;;;;;17.41;100.00;100279.44;6240433;28;96577;-62
2024/04/12 06:40:08;;;;;;;;;24.80;23.80;;;;;17.53;100.00;100265.84;6241649;28;95797;-62
2024/04/12 06:43:16;;;;;;;;;25.25;22.00;;;;;17.77;100.00;100277.66;6268140;27;94477;-62
2024/04/12 06:46:19;;;;;;;;;26.00;24.00;;;;;18.01;100.00;100274.72;6268038;27;94645;-63
2024/04/12 06:49:27;;;;;;;;;24.25;21.50;;;;;18.30;100.00;100272.94;6267309;27;94671;-62
2024/04/12 06:52:34;;;;;;;;;23.80;21.40;;;;;18.55;100.00;100272.72;6243165;28;94765;-62
2024/04/12 06:55:45;;;;;;;;;25.75;24.00;;;;;18.75;100.00;100275.88;6272540;27;94842;-65
2024/04/12 06:58:54;;;;;;;;;24.00;22.50;;;;;18.95;100.00;100261.81;6271186;27;94978;-65
2024/04/12 07:01:56;;;;;;;;;22.60;22.00;;;;;18.78;100.00;100208.97;6297448;27;94977;-64
2024/04/12 07:05:05;;;;;;;;;26.00;24.40;;;;;19.15;100.00;100256.75;6271295;27;94354;-65
2024/04/12 07:08:08;;;;;;;;;26.40;24.40;;;;;19.42;100.00;100257.78;6477060;22;96602;-64
2024/04/12 07:11:16;;;;;;;;;26.00;23.00;;;;;19.54;100.00;100265.13;6232199;27;94465;-64
2024/04/12 07:14:22;;;;;;;;;24.40;21.00;;;;;19.68;100.00;100261.00;6231749;28;95236;-65
2024/04/12 07:17:28;;;;;;;;;21.50;20.00;;;;;19.88;100.00;100261.34;6231250;28;94430;-66
2024/04/12 07:20:38;;;;;;;;;24.60;24.00;;;;;20.06;100.00;100261.06;6243773;27;94346;-64
2024/04/12 07:23:46;;;;;;;;;24.00;23.50;;;;;20.25;100.00;100250.66;6192429;28;94776;-65
2024/04/12 07:26:49;;;;;;;;;21.60;20.00;;;;;20.56;100.00;100260.19;6192740;28;94281;-65
2024/04/12 07:29:57;;;;;;;;;24.00;22.50;;;;;20.72;100.00;100248.34;6192600;28;94502;-65
2024/04/12 07:33:05;;;;;;;;;25.00;22.00;;;;;21.01;100.00;100243.47;6192391;27;96538;-65
2024/04/12 07:36:16;;;;;;;;;26.20;22.80;;;;;21.34;100.00;100246.06;6243496;27;94405;-64
2024/04/12 07:39:23;;;;;;;;;21.20;19.20;;;;;21.63;100.00;100245.75;6217288;28;94404;-65
2024/04/12 07:42:26;;;;;;;;;21.20;20.00;;;;;21.93;100.00;100255.13;6192605;28;94422;-64
2024/04/12 07:45:37;;;;;;;;;23.00;21.00;;;;;21.97;100.00;100252.66;6192709;28;97333;-63
2024/04/12 07:48:48;;;;;;;;;20.50;19.00;;;;;22.31;100.00;100259.50;6192405;28;94875;-64
2024/04/12 07:51:51;;;;;;;;;22.00;21.00;;;;;22.48;100.00;100260.13;6217269;28;94262;-63
2024/04/12 07:55:01;;;;;;;;;21.60;18.60;;;;;22.41;100.00;100264.22;6191126;28;94255;-64
2024/04/12 07:58:08;;;;;;;;;21.00;20.00;;;;;22.63;100.00;100258.56;6190818;28;94463;-67
2024/04/12 08:01:25;;;;;;;;;18.00;18.00;;;;;22.60;100.00;100259.94;6242621;28;94442;-64
2024/04/12 08:04:36;;;;;;;;;20.00;19.00;;;;;22.73;100.00;100264.13;6243827;27;94371;-65
2024/04/12 08:07:42;;;;;;;;;18.80;18.20;;;;;22.85;100.00;100270.25;6241811;28;94726;-64
2024/04/12 08:10:45;;;;;;;;;21.00;18.00;;;;;22.93;100.00;100271.66;6192725;28;94338;-65
2024/04/12 08:13:53;;;;;;;;;15.60;15.00;;;;;23.11;100.00;100261.00;6192481;28;97383;-67
2024/04/12 08:17:01;;;;;;;;;17.75;15.25;;;;;23.29;100.00;100257.75;6192140;28;94341;-66
2024/04/12 08:20:13;;;;;;;;;17.00;16.00;;;;;23.48;100.00;100246.25;6242633;28;97033;-64
2024/04/12 08:23:19;;;;;;;;;13.20;12.20;;;;;23.72;100.00;100253.69;6191966;28;94390;-64
2024/04/12 08:26:27;;;;;;;;;13.00;13.00;;;;;23.99;100.00;100247.09;6190402;28;95002;-64
2024/04/12 08:29:32;;;;;;;;;13.00;11.40;;;;;24.32;100.00;100240.16;6190401;28;95029;-65
2024/04/12 08:32:39;;;;;;;;;12.40;11.00;;;;;24.51;100.00;100236.53;6189417;28;94366;-64
2024/04/12 08:35:55;;;;;;;;;10.00;10.00;;;;;24.64;100.00;100235.09;6188722;28;94489;-64
2024/04/12 08:39:12;;;;;;;;;13.50;11.50;;;;;24.83;100.00;100227.00;6188737;28;94364;-65
2024/04/12 08:42:18;;;;;;;;;10.50;10.00;;;;;24.95;100.00;100224.78;6188539;28;94332;-65
2024/04/12 08:45:26;;;;;;;;;10.00;10.00;;;;;24.89;100.00;100232.25;6213241;28;95022;-64
2024/04/12 08:48:34;;;;;;;;;12.00;12.00;;;;;25.07;100.00;100232.75;6187646;28;94411;-61
2024/04/12 08:51:39;;;;;;;;;9.40;8.40;;;;;25.42;100.00;100238.84;6186541;28;94408;-64
2024/04/12 08:54:45;;;;;;;;;10.00;9.00;;;;;25.67;100.00;100224.06;6188536;28;94446;-65
2024/04/12 08:57:52;;;;;;;;;9.80;9.00;;;;;26.18;100.00;100237.41;6187522;28;94505;-64
2024/04/12 09:00:58;;;;;;;;;10.00;10.00;;;;;26.46;91.53;100230.22;6187932;28;95028;-66
2024/04/12 09:04:04;;;;;;;;;11.25;10.25;;;;;27.09;89.96;100239.13;6187975;28;94373;-65
2024/04/12 09:07:12;;;;;;;;;9.00;9.00;;;;;27.63;88.91;100237.81;6187345;28;94293;-64
2024/04/12 09:10:19;;;;;;;;;9.00;8.60;;;;;28.33;84.25;100236.59;6213612;28;94621;-65
2024/04/12 09:13:27;;;;;;;;;10.00;10.00;;;;;28.79;79.09;100242.06;6189238;28;95554;-66
2024/04/12 09:16:43;;;;;;;;;10.00;8.40;;;;;29.42;76.41;100224.56;6183701;28;94691;-57
2024/04/12 09:19:51;;;;;;;;;10.00;9.00;;;;;29.98;69.74;100224.03;6173125;28;94616;-58
2024/04/12 09:22:54;;;;;;;;;9.25;9.25;;;;;30.76;69.95;100222.44;6146533;28;94361;-59
2024/04/12 09:26:01;;;;;;;;;8.00;7.20;;;;;31.35;65.91;100220.94;6198692;28;96778;-58
2024/04/12 09:29:09;;;;;;;;;9.00;8.60;;;;;31.97;65.39;100212.19;6174800;28;94994;-58
2024/04/12 09:35:45;;;;;;;;;7.00;7.00;;;;;32.37;62.79;100211.94;6198321;28;94839;-58
2024/04/12 09:38:48;;;;;;;;;7.40;6.80;;;;;32.53;66.07;100207.44;6224425;28;94667;-57
2024/04/12 09:41:58;;;;;;;;;5.00;4.80;;;;;32.87;51.00;100210.06;6195825;28;94836;-57
2024/04/12 09:45:08;;;;;;;;;8.20;7.60;;;;;33.35;57.69;100203.97;6172723;28;94383;-58
2024/04/12 10:39:18;;;;;;;;;4.50;4.25;;;;;38.90;37.47;100132.09;6166738;28;94409;-63
2024/04/12 10:42:30;;;;;;;;;5.00;5.00;;;;;39.42;36.16;100131.19;6166707;28;94683;-61
2024/04/12 10:45:36;;;;;;;;;5.60;5.20;;;;;39.42;35.93;100128.34;6129051;28;94723;-63
2024/04/12 10:48:39;;;;;;;;;6.00;5.00;;;;;39.47;36.30;100119.53;6152315;28;94818;-62
2024/04/12 10:51:44;;;;;;;;;7.60;6.00;;;;;40.08;36.76;100118.94;6128586;28;94828;-62
2024/04/12 10:54:50;;;;;;;;;7.00;6.60;;;;;40.60;36.10;100119.78;6129216;28;95186;-62
2024/04/12 10:58:01;;;;;;;;;7.00;6.60;;;;;40.91;34.85;100107.84;6128164;28;95029;-62
2024/04/12 11:01:04;;;;;;;;;8.00;7.00;;;;;41.14;36.93;100099.13;6146415;28;95203;-62
2024/04/12 11:04:12;;;;;;;;;6.60;5.00;;;;;41.63;34.21;100092.81;6161496;28;94889;-62
2024/04/12 11:07:16;;;;;;;;;7.00;6.00;;;;;41.37;34.16;100087.47;6193320;28;95011;-62
2024/04/12 11:10:25;;;;;;;;;6.80;6.00;;;;;41.31;34.95;100094.72;6160870;28;96329;-62
2024/04/12 11:13:35;;;;;;;;;8.00;7.00;;;;;39.71;34.88;100079.47;6168295;28;95746;-62
2024/04/12 11:33:41;;;;;;;;;6.20;6.20;;;;;41.59;34.56;100054.38;6154435;28;95383;-62
2024/04/12 11:36:53;;;;;;;;;8.00;8.00;;;;;42.00;33.18;100061.28;6160633;28;94952;-58
2024/04/12 11:39:58;;;;;;;;;7.20;7.00;;;;;42.49;33.12;100054.75;6169620;28;94698;-59
2024/04/12 11:43:00;;;;;;;;;6.00;6.00;;;;;42.58;33.83;100045.81;6190339;28;94484;-60
2024/04/12 11:46:14;;;;;;;;;6.00;6.00;;;;;42.51;33.79;100051.53;6177583;28;97765;-59
2024/04/12 11:49:25;;;;;;;;;7.25;7.00;;;;;41.17;32.92;100030.41;6181051;28;94674;-58
2024/04/12 11:52:30;;;;;;;;;7.60;6.60;;;;;40.53;34.76;100034.91;6188203;28;94544;-58
2024/04/12 11:55:35;;;;;;;;;6.00;6.00;;;;;40.21;36.08;100044.03;6151376;28;96068;-58
2024/04/12 11:58:43;;;;;;;;;8.00;7.00;;;;;39.60;36.50;100032.56;6162929;28;94388;-58
2024/04/12 12:01:52;;;;;;;;;7.00;7.00;;;;;38.66;38.18;100023.38;6150996;28;94375;-58
2024/04/12 12:04:56;;;;;;;;;7.00;7.00;;;;;37.58;38.99;100019.28;6150017;28;95859;-59
2024/04/12 12:08:04;;;;;;;;;7.00;7.00;;;;;36.65;41.20;100006.56;6165568;28;96464;-62
2024/04/12 12:11:10;;;;;;;;;6.00;6.00;;;;;35.59;43.93;100007.59;6170495;28;96525;-58
2024/04/12 12:14:13;;;;;;;;;9.00;8.00;;;;;34.87;45.74;100009.63;6162608;28;94775;-60
2024/04/12 12:17:21;;;;;;;;;7.50;7.00;;;;;34.18;49.33;100007.09;6170004;28;94875;-58
2024/04/12 12:20:30;;;;;;;;;7.40;7.00;;;;;33.47;49.28;99996.31;6167990;28;94352;-59
2024/04/12 12:23:34;;;;;;;;;8.00;8.00;;;;;32.92;51.04;100002.31;6163729;28;94983;-58
2024/04/12 12:26:39;;;;;;;;;6.60;6.00;;;;;32.53;52.66;99992.44;6177756;28;94672;-59
2024/04/12 12:29:42;;;;;;;;;8.00;7.00;;;;;32.31;53.14;99990.78;6170913;28;95005;-58
2024/04/12 12:32:52;;;;;;;;;7.25;7.00;;;;;32.19;57.46;99976.78;6184228;28;94478;-59
2024/04/12 12:35:58;;;;;;;;;6.00;6.00;;;;;32.07;59.80;99968.28;6170031;28;94326;-59
2024/04/12 12:39:00;;;;;;;;;7.67;7.00;;;;;31.96;56.27;99973.44;6158517;28;95198;-59
2024/04/12 12:42:09;;;;;;;;;6.60;6.00;;;;;31.69;56.83;99973.94;6160097;28;94680;-59
2024/04/12 12:45:13;;;;;;;;;7.00;7.00;;;;;31.25;57.01;99973.25;6174339;28;94841;-60
2024/04/12 12:48:27;;;;;;;;;6.40;6.40;;;;;30.90;60.56;99966.91;6169546;28;94400;-65
2024/04/12 12:51:30;;;;;;;;;6.00;5.50;;;;;30.73;62.44;99953.03;6204546;27;94993;-66
2024/04/12 12:54:38;;;;;;;;;6.00;6.00;;;;;30.73;65.32;99957.78;6183334;28;94937;-65
2024/04/12 12:57:44;;;;;;;;;7.00;7.00;;;;;30.68;65.69;99957.97;6171333;28;94791;-65
2024/04/12 13:00:49;;;;;;;;;6.20;5.80;;;;;30.54;62.65;99939.44;6172635;28;94320;-65
2024/04/12 13:03:54;;;;;;;;;6.00;5.00;;;;;30.28;63.04;99932.25;6169106;28;94260;-64
2024/04/12 13:07:00;;;;;;;;;8.00;6.00;;;;;30.24;64.33;99946.00;6167894;28;94445;-65
2024/04/12 13:10:05;;;;;;;;;8.00;7.60;;;;;30.09;64.63;99941.72;6170692;28;94426;-65
2024/04/12 13:13:17;;;;;;;;;7.00;7.00;;;;;30.02;64.78;99927.47;6168514;28;95573;-64
2024/04/12 13:16:21;;;;;;;;;7.00;6.60;;;;;29.98;67.26;99932.03;6170609;28;94307;-65
2024/04/12 13:19:32;;;;;;;;;6.00;6.00;;;;;29.84;68.39;99914.66;6169977;28;94408;-64
2024/04/12 13:22:35;;;;;;;;;6.00;6.00;;;;;29.76;66.54;99921.03;6170721;28;94841;-63
2024/04/12 13:25:42;;;;;;;;;8.00;6.00;;;;;29.56;68.79;99925.22;6153087;28;96542;-63
2024/04/12 13:28:44;;;;;;;;;7.00;6.00;;;;;29.39;68.38;99902.09;6159981;28;94725;-63
2024/04/12 13:31:50;;;;;;;;;8.00;8.00;;;;;29.39;70.05;99916.81;6167008;28;94551;-63
2024/04/12 13:35:02;;;;;;;;;6.00;5.00;;;;;29.29;69.64;99917.91;6216076;27;95737;-65
2024/04/12 13:38:05;;;;;;;;;8.00;7.00;;;;;29.16;71.92;99909.66;6143531;28;96651;-65
2024/04/12 13:41:10;;;;;;;;;7.00;7.00;;;;;29.00;70.18;99889.84;6167849;28;94776;-63
2024/04/12 13:44:25;;;;;;;;;8.00;8.00;;;;;29.21;72.13;99903.97;6187702;28;94752;-63
2024/04/12 13:51:01;;;;;;;;;7.00;6.00;;;;;29.36;72.36;99906.38;6106756;28;94447;-65
2024/04/12 13:54:08;;;;;;;;;6.00;6.00;;;;;29.43;71.97;99903.91;6165191;28;94311;-65
2024/04/12 13:57:15;;;;;;;;;8.00;7.40;;;;;29.41;71.18;99897.88;6162663;28;94654;-64
2024/04/12 14:00:30;;;;;;;;;7.00;7.00;;;;;29.19;70.88;99889.59;6162181;28;94425;-64
2024/04/12 14:03:37;;;;;;;;;8.00;7.00;;;;;29.09;71.92;99889.88;6162991;28;94430;-64
2024/04/12 14:06:46;;;;;;;;;8.00;8.00;;;;;29.02;72.50;99887.56;6190372;28;94639;-64
2024/04/12 14:09:52;;;;;;;;;7.00;7.00;;;;;28.84;72.28;99888.59;6167171;28;94869;-64
2024/04/12 14:12:55;;;;;;;;;5.75;5.75;;;;;28.80;73.39;99898.69;6167344;28;94908;-64
2024/04/12 14:16:01;;;;;;;;;7.00;6.60;;;;;28.64;74.27;99883.53;6164647;28;94870;-64
2024/04/12 14:19:12;;;;;;;;;6.50;6.00;;;;;28.39;76.54;99874.72;6165508;28;95239;-64
2024/04/12 14:22:17;;;;;;;;;7.00;6.00;;;;;28.32;77.35;99879.09;6166986;28;94471;-64
2024/04/12 14:25:25;;;;;;;;;8.75;7.75;;;;;28.34;79.99;99874.88;6171199;28;94360;-64
2024/04/12 14:28:31;;;;;;;;;8.00;7.00;;;;;28.33;78.34;99864.91;6164679;28;95280;-64
2024/04/12 14:31:33;;;;;;;;;7.00;7.00;;;;;28.34;77.13;99871.28;6163491;28;94202;-64
2024/04/12 14:34:42;;;;;;;;;8.00;7.00;;;;;28.38;78.45;99856.47;6214077;27;95081;-63
2024/04/12 14:37:50;;;;;;;;;7.00;7.00;;;;;28.55;80.26;99855.75;6161245;28;94348;-64
2024/04/12 14:40:55;;;;;;;;;6.60;6.60;;;;;28.49;78.92;99842.34;6162167;28;95647;-64
2024/04/12 14:44:00;;;;;;;;;5.50;5.50;;;;;28.44;80.61;99862.72;6160978;28;94316;-64
2024/04/12 14:47:02;;;;;;;;;7.00;7.00;;;;;28.36;78.12;99844.88;6215550;28;95662;-63
2024/04/12 14:50:10;;;;;;;;;6.00;6.00;;;;;28.07;80.26;99849.16;6165439;28;95712;-64
2024/04/12 14:53:15;;;;;;;;;7.60;7.00;;;;;27.79;82.17;99842.91;6160564;28;95465;-64
2024/04/12 14:56:23;;;;;;;;;10.00;8.67;;;;;27.49;83.61;99841.63;6155063;28;95217;-64
2024/04/12 14:59:31;;;;;;;;;7.00;6.00;;;;;27.47;85.74;99827.22;6152650;28;94446;-64
2024/04/12 15:49:29;;;;;;;;;6.00;6.00;;;;;26.87;87.82;99791.41;6213242;28;94949;-66
2024/04/12 15:53:16;;;;;;;;;6.00;6.00;;;;;26.73;88.49;99791.34;6165624;28;96233;-63
2024/04/12 16:13:05;;;;;;;;;6.60;6.60;;;;;25.85;98.14;99792.31;6101498;28;95728;-64
2024/04/12 16:16:13;;;;;;;;;8.00;7.00;;;;;25.73;99.95;99791.97;6164684;28;94353;-63
2024/04/12 16:19:18;;;;;;;;;7.00;7.00;;;;;25.63;100.00;99791.31;6135851;28;95043;-63
2024/04/12 16:22:24;;;;;;;;;7.00;6.00;;;;;25.45;100.00;99787.41;6160663;28;96472;-64
2024/04/12 16:25:29;;;;;;;;;5.60;5.00;;;;;25.41;100.00;99789.91;6164155;28;94985;-63
2024/04/12 16:28:35;;;;;;;;;6.00;5.00;;;;;25.38;100.00;99792.44;6161974;28;94393;-64
2024/04/12 16:31:43;;;;;;;;;6.00;5.60;;;;;25.28;100.00;99787.06;6150480;28;94447;-63
2024/04/12 16:34:53;;;;;;;;;7.00;7.00;;;;;25.17;100.00;99786.38;6158377;28;95968;-64
2024/04/12 16:37:59;;;;;;;;;7.00;6.00;;;;;25.05;100.00;99787.94;6164712;28;95067;-64
2024/04/12 16:41:04;;;;;;;;;4.00;4.00;;;;;24.93;100.00;99780.88;6165637;28;94453;-66